Time;durP1;ratioP1;P1;durP2;ratioP2;P2;SDS_P1;SDS_P2;PMS_P1;PMS_P2;Temp;Humidity;BMP_temperature;BMP_pressure;BME280_temperature;BME280_humidity;BME280_pressure;Samples;Min_cycle;Max_cycle;Signal;HPM_P1;HPM_P2
2022/12/23 00:02:12;;;;;;;124.87;50.03;;;;;;;2.88;100.00;100049.12;6665242;26;33846;-87
2022/12/23 00:05:15;;;;;;;119.07;48.45;;;;;;;3.06;100.00;100045.19;6645129;26;32540;-87
2022/12/23 00:08:19;;;;;;;124.38;50.40;;;;;;;3.07;100.00;100046.06;6644162;26;34272;-88
2022/12/23 00:11:23;;;;;;;126.70;50.22;;;;;;;2.96;100.00;100051.53;6685860;26;35066;-90
2022/12/23 00:17:56;;;;;;;121.05;49.08;;;;;;;2.97;100.00;100042.81;6636832;26;34512;-89
2022/12/23 00:21:02;;;;;;;118.25;49.00;;;;;;;2.90;100.00;100041.19;6636688;26;33661;-88
2022/12/23 00:24:10;;;;;;;117.82;48.58;;;;;;;2.94;100.00;100042.88;6647899;26;34183;-88
2022/12/23 00:27:13;;;;;;;125.60;48.15;;;;;;;2.94;100.00;100043.75;6633341;26;32791;-89
2022/12/23 00:30:19;;;;;;;117.82;49.78;;;;;;;3.01;100.00;100041.81;6641425;26;34223;-88
2022/12/23 00:33:24;;;;;;;119.50;47.65;;;;;;;3.05;100.00;100045.22;6652030;26;34395;-88
2022/12/23 00:36:28;;;;;;;117.35;46.78;;;;;;;3.09;100.00;100052.12;6651241;26;34224;-88
2022/12/23 00:42:58;;;;;;;120.47;45.83;;;;;;;3.09;100.00;100037.28;6637197;26;32253;-88
2022/12/23 00:46:00;;;;;;;105.47;47.05;;;;;;;3.08;100.00;100030.28;6647731;26;34395;-89
2022/12/23 00:52:26;;;;;;;96.05;41.00;;;;;;;3.20;100.00;100033.50;6636462;26;33564;-88
2022/12/23 00:55:29;;;;;;;103.38;43.42;;;;;;;3.27;100.00;100024.56;6634380;26;34128;-88
2022/12/23 00:58:32;;;;;;;100.12;43.38;;;;;;;3.26;100.00;100024.66;6634923;26;34400;-88
2022/12/23 01:08:18;;;;;;;89.28;38.38;;;;;;;3.24;100.00;100030.75;6635055;26;34355;-89
2022/12/23 01:11:20;;;;;;;100.57;42.42;;;;;;;3.31;100.00;100026.25;6635296;26;33979;-88
2022/12/23 01:14:24;;;;;;;90.25;40.88;;;;;;;3.34;100.00;100020.94;6638521;26;33493;-88
2022/12/23 01:17:26;;;;;;;115.97;44.10;;;;;;;3.31;100.00;100022.75;6640262;26;33930;-88
2022/12/23 01:20:39;;;;;;;95.32;41.90;;;;;;;3.25;100.00;100026.38;6637921;26;34053;-88
2022/12/23 01:23:42;;;;;;;102.60;43.20;;;;;;;3.23;100.00;100023.81;6680496;26;34177;-88
2022/12/23 01:30:29;;;;;;;97.78;40.45;;;;;;;3.34;100.00;100014.81;6686358;26;20387;-88
2022/12/23 01:33:32;;;;;;;99.68;40.97;;;;;;;3.37;100.00;100012.97;6692451;26;34976;-88
2022/12/23 01:36:35;;;;;;;95.15;42.83;;;;;;;3.51;100.00;100014.38;6683573;26;34726;-88
2022/12/23 01:39:38;;;;;;;96.53;40.97;;;;;;;3.42;100.00;100018.09;6684394;26;34898;-89
2022/12/23 01:42:45;;;;;;;98.97;42.28;;;;;;;3.36;100.00;100006.00;6686261;26;34575;-89
2022/12/23 01:45:49;;;;;;;91.20;39.38;;;;;;;3.41;100.00;100002.41;6705588;26;34984;-89
2022/12/23 01:48:52;;;;;;;96.12;39.63;;;;;;;3.47;100.00;100002.25;6709572;26;34707;-89
2022/12/23 01:51:55;;;;;;;91.55;40.72;;;;;;;3.37;100.00;99993.78;6700295;26;34164;-89
2022/12/23 01:54:58;;;;;;;82.50;38.03;;;;;;;3.40;100.00;99993.69;6705568;26;34969;-88
2022/12/23 01:58:13;;;;;;;82.78;38.58;;;;;;;3.42;100.00;99991.03;6701055;26;35384;-88
2022/12/23 02:04:38;;;;;;;84.03;36.78;;;;;;;3.45;100.00;99985.69;6697589;26;34915;-89
2022/12/23 02:11:16;;;;;;;78.05;36.17;;;;;;;3.47;100.00;99978.66;6673677;26;33783;-90
2022/12/23 02:17:53;;;;;;;75.43;35.38;;;;;;;3.45;100.00;99973.44;6685319;26;33969;-89
2022/12/23 02:21:30;;;;;;;75.85;34.50;;;;;;;3.59;100.00;99966.97;6684528;26;34540;-90
2022/12/23 02:25:06;;;;;;;72.25;34.88;;;;;;;3.60;100.00;99963.44;6684346;26;34428;-89
2022/12/23 02:28:11;;;;;;;79.18;34.80;;;;;;;3.57;100.00;99971.41;6684151;26;34594;-89
2022/12/23 02:31:28;;;;;;;81.80;35.78;;;;;;;3.66;100.00;99967.66;6683682;26;34260;-89
2022/12/23 02:34:34;;;;;;;77.78;36.00;;;;;;;3.53;100.00;99962.75;6683891;26;33769;-88
2022/12/23 02:41:15;;;;;;;;;;;;;;;3.59;100.00;99964.34;6683954;26;34509;-88
2022/12/23 02:44:43;;;;;;;91.10;37.53;;;;;;;3.45;100.00;99967.31;6683977;26;34988;-89
2022/12/23 02:47:55;;;;;;;93.40;37.78;;;;;;;3.31;100.00;99965.94;6691351;26;33627;-89
2022/12/23 02:51:00;;;;;;;101.38;41.05;;;;;;;3.33;100.00;99958.03;6671667;26;34188;-89
2022/12/23 02:54:07;;;;;;;112.60;43.35;;;;;;;3.33;100.00;99961.50;6689996;26;33822;-88
2022/12/23 02:57:15;;;;;;;103.85;41.42;;;;;;;3.22;100.00;99964.41;6686419;26;34028;-88
2022/12/23 03:00:22;;;;;;;111.32;42.42;;;;;;;3.22;100.00;99963.56;6683852;26;34693;-88
2022/12/23 03:03:25;;;;;;;119.97;43.15;;;;;;;3.16;100.00;99966.34;6684099;26;33744;-89
2022/12/23 03:06:34;;;;;;;110.12;42.53;;;;;;;3.12;100.00;99977.81;6685911;26;33883;-89
2022/12/23 03:09:54;;;;;;;115.93;43.20;;;;;;;3.12;100.00;99969.94;6665806;26;32640;-89
2022/12/23 03:13:09;;;;;;;115.90;43.97;;;;;;;3.09;100.00;99978.75;6688370;26;34324;-89
2022/12/23 03:16:22;;;;;;;120.62;44.15;;;;;;;3.07;100.00;99967.44;6694088;26;34526;-89
2022/12/23 03:23:29;;;;;;;123.78;44.65;;;;;;;2.97;100.00;99969.44;6614565;26;20068;-87
2022/12/23 03:26:56;;;;;;;126.93;43.83;;;;;;;3.02;100.00;99964.06;6671276;26;33593;-88
2022/12/23 03:30:04;;;;;;;123.60;44.00;;;;;;;3.05;100.00;99961.34;6691922;26;34651;-88
2022/12/23 03:36:56;;;;;;;120.43;43.70;;;;;;;3.12;100.00;99957.66;6687625;26;20704;-89
2022/12/23 03:40:09;;;;;;;134.18;45.70;;;;;;;3.09;100.00;99953.41;6704991;26;34350;-88
2022/12/23 03:43:19;;;;;;;141.20;45.40;;;;;;;3.01;100.00;99951.88;6688271;26;34802;-89
2022/12/23 03:46:31;;;;;;;144.93;44.67;;;;;;;3.06;100.00;99955.22;6685667;26;34541;-89
2022/12/23 03:57:01;;;;;;;152.90;48.13;;;;;;;2.87;100.00;99952.22;6665423;26;20411;-88
2022/12/23 04:00:05;;;;;;;187.65;48.78;;;;;;;2.89;100.00;99937.31;6672622;26;34472;-89
2022/12/23 04:03:25;;;;;;;217.82;51.42;;;;;;;2.79;100.00;99942.78;6683949;26;34671;-88
2022/12/23 04:06:38;;;;;;;223.15;50.72;;;;;;;2.75;100.00;99948.09;6684976;26;34317;-88
2022/12/23 04:09:42;;;;;;;206.18;49.97;;;;;;;2.76;100.00;99945.47;6693103;26;33997;-88
2022/12/23 04:12:45;;;;;;;193.80;50.65;;;;;;;2.72;100.00;99946.47;6688366;26;33939;-88
2022/12/23 04:15:47;;;;;;;188.25;48.97;;;;;;;2.82;100.00;99936.62;6683021;26;34291;-89
2022/12/23 04:18:51;;;;;;;176.23;47.50;;;;;;;2.80;100.00;99941.00;6684428;26;34158;-89
2022/12/23 04:21:55;;;;;;;195.05;46.40;;;;;;;2.90;100.00;99939.00;6686931;26;34336;-88
2022/12/23 04:24:58;;;;;;;177.45;46.72;;;;;;;2.79;100.00;99919.22;6688791;26;34102;-89
2022/12/23 04:28:04;;;;;;;254.15;46.00;;;;;;;2.65;100.00;99934.38;6693547;26;34608;-89
2022/12/23 04:31:07;;;;;;;250.70;46.72;;;;;;;2.63;100.00;99923.97;6685146;26;34935;-88
2022/12/23 04:34:11;;;;;;;192.50;46.33;;;;;;;2.62;100.00;99921.38;6693195;26;33639;-88
2022/12/23 04:37:16;;;;;;;236.10;44.95;;;;;;;2.59;100.00;99930.16;6693325;26;34306;-89
2022/12/23 04:40:24;;;;;;;201.50;42.58;;;;;;;2.63;100.00;99931.81;6685433;26;34824;-89
2022/12/23 04:43:40;;;;;;;234.37;42.90;;;;;;;2.64;100.00;99930.03;6685917;26;35620;-87
2022/12/23 04:50:07;;;;;;;241.40;43.47;;;;;;;2.43;100.00;99937.53;6691431;26;35225;-88
2022/12/23 04:53:10;;;;;;;255.37;45.95;;;;;;;2.45;100.00;99948.81;6642040;26;34932;-88
2022/12/23 04:56:14;;;;;;;197.90;42.67;;;;;;;2.48;100.00;99950.50;6686024;26;34262;-88
2022/12/23 04:59:17;;;;;;;216.00;44.92;;;;;;;2.47;100.00;99940.94;6685571;26;33990;-88
2022/12/23 05:02:32;;;;;;;344.35;49.55;;;;;;;2.50;100.00;99944.34;6685119;26;34677;-88
2022/12/23 05:09:20;;;;;;;300.95;46.05;;;;;;;2.43;100.00;99927.03;6661412;26;20052;-88
2022/12/23 05:23:31;;;;;;;161.60;41.20;;;;;;;2.41;100.00;99949.75;6688239;26;20054;-88
2022/12/23 05:27:43;;;;;;;229.55;45.42;;;;;;;2.83;100.00;99938.31;5641955;26;327916;-89
2022/12/23 05:31:09;;;;;;;205.18;42.35;;;;;;;2.83;100.00;99938.31;5630662;26;34653;-90
2022/12/23 05:34:13;;;;;;;295.83;46.13;;;;;;;2.37;100.00;99948.97;5630354;26;35224;-87
2022/12/23 05:47:54;;;;;;;188.32;37.97;;;;;;;2.27;100.00;99947.47;6735438;26;99961;-88
2022/12/23 05:54:43;;;;;;;110.78;34.45;;;;;;;2.30;100.00;99950.00;6722839;26;20309;-89
2022/12/23 06:04:54;;;;;;;93.43;33.60;;;;;;;2.27;100.00;99974.50;6720998;26;34064;-87
2022/12/23 06:11:52;;;;;;;101.25;33.45;;;;;;;2.32;100.00;99965.69;6726518;26;20301;-89
2022/12/23 06:14:55;;;;;;;122.53;34.15;;;;;;;2.28;100.00;99960.50;6729696;26;33952;-88
2022/12/23 06:21:43;;;;;;;162.25;35.90;;;;;;;2.19;100.00;99955.50;6728310;26;20057;-87
2022/12/23 06:24:47;;;;;;;126.75;34.40;;;;;;;2.18;100.00;99958.13;6722772;26;34606;-89
2022/12/23 06:27:50;;;;;;;110.97;33.03;;;;;;;2.08;100.00;99960.09;6722139;26;33506;-89
2022/12/23 06:31:13;;;;;;;120.70;32.53;;;;;;;2.05;100.00;99963.63;6703127;26;20038;-89
2022/12/23 06:37:54;;;;;;;151.43;35.38;;;;;;;1.87;100.00;99957.88;6731126;26;20031;-89
2022/12/23 06:41:10;;;;;;;141.68;36.35;;;;;;;1.90;100.00;99946.50;6724488;26;34502;-89
2022/12/23 06:44:13;;;;;;;142.50;33.20;;;;;;;1.87;100.00;99955.28;6701942;26;32783;-89
2022/12/23 06:47:16;;;;;;;124.43;34.15;;;;;;;1.90;100.00;99971.81;6718612;26;33926;-89
2022/12/23 06:50:21;;;;;;;147.80;33.92;;;;;;;1.85;100.00;99974.50;6720322;26;34687;-88
2022/12/23 06:53:24;;;;;;;126.57;33.67;;;;;;;1.82;100.00;99978.03;6717302;26;35361;-88
2022/12/23 06:56:28;;;;;;;113.75;32.42;;;;;;;1.68;100.00;99969.63;6720753;26;34405;-88
2022/12/23 07:06:56;;;;;;;106.82;31.92;;;;;;;1.63;100.00;99977.56;6723896;26;20523;-90
2022/12/23 07:10:11;;;;;;;108.10;31.08;;;;;;;1.57;100.00;99985.53;6727080;26;34600;-91
2022/12/23 07:13:14;;;;;;;99.60;30.42;;;;;;;1.59;100.00;99994.19;6728770;26;34189;-89
2022/12/23 07:16:17;;;;;;;90.75;30.00;;;;;;;1.68;100.00;100006.22;6702141;26;33051;-87
2022/12/23 07:19:20;;;;;;;107.35;32.50;;;;;;;1.66;100.00;100006.25;6717341;26;33791;-88
2022/12/23 07:22:23;;;;;;;104.35;31.80;;;;;;;1.66;100.00;100003.63;6715707;26;34575;-87
2022/12/23 07:25:27;;;;;;;89.07;31.00;;;;;;;1.71;100.00;100006.19;6715153;26;33990;-88
2022/12/23 07:28:33;;;;;;;95.78;30.83;;;;;;;1.78;100.00;100007.78;6715323;26;34284;-87
2022/12/23 07:35:05;;;;;;;80.18;28.62;;;;;;;1.88;100.00;100001.47;6723123;26;34379;-87
2022/12/23 07:38:08;;;;;;;74.68;27.83;;;;;;;1.93;100.00;99990.94;6721011;26;33655;-89
2022/12/23 07:41:11;;;;;;;78.62;27.87;;;;;;;1.92;100.00;99989.22;6696186;26;32642;-88
2022/12/23 07:44:16;;;;;;;69.18;27.55;;;;;;;1.92;100.00;99983.97;6716495;26;33365;-88
2022/12/23 07:47:18;;;;;;;71.28;28.30;;;;;;;1.93;100.00;99984.81;6721565;26;35080;-88
2022/12/23 07:57:44;;;;;;;68.03;26.70;;;;;;;1.96;100.00;99988.22;6721757;26;20062;-89
2022/12/23 08:11:54;;;;;;;72.65;27.98;;;;;;;1.83;100.00;99981.53;6666987;26;34295;-88
2022/12/23 08:29:47;;;;;;;72.45;28.70;;;;;;;2.24;100.00;99956.25;6722197;26;33495;-88
2022/12/23 08:32:50;;;;;;;77.28;30.10;;;;;;;2.01;100.00;99968.06;6700080;26;32659;-88
2022/12/23 08:35:53;;;;;;;80.75;28.87;;;;;;;2.09;100.00;99975.78;6717348;26;33975;-89
2022/12/23 08:38:59;;;;;;;70.85;29.02;;;;;;;2.12;100.00;99974.84;6702340;26;32199;-89
2022/12/23 08:42:01;;;;;;;68.03;28.92;;;;;;;2.12;100.00;99960.00;6731230;26;36114;-88
2022/12/23 08:45:08;;;;;;;70.40;28.67;;;;;;;2.07;100.00;99969.72;6722808;26;34575;-88
2022/12/23 08:48:11;;;;;;;73.93;29.25;;;;;;;2.00;100.00;99968.09;6726099;26;34079;-88
2022/12/23 08:51:16;;;;;;;68.95;28.52;;;;;;;1.93;100.00;99970.00;6723835;26;33982;-88
2022/12/23 09:05:39;;;;;;;81.45;29.58;;;;;;;1.99;100.00;99914.06;6724682;26;20054;-88
2022/12/23 09:09:06;;;;;;;77.97;29.12;;;;;;;1.91;100.00;99922.06;6688647;26;34174;-88
2022/12/23 09:28:02;;;;;;;85.53;31.02;;;;;;;2.13;100.00;99958.25;6711799;26;20038;-89
2022/12/23 09:31:12;;;;;;;71.53;29.52;;;;;;;2.16;100.00;99952.94;6673606;26;33695;-90
2022/12/23 09:34:14;;;;;;;76.90;30.20;;;;;;;2.12;100.00;99951.28;6675725;26;34331;-90
2022/12/23 09:37:17;;;;;;;69.97;29.45;;;;;;;2.21;100.00;99942.38;6667946;26;33572;-89
2022/12/23 09:40:22;;;;;;;80.65;32.90;;;;;;;2.22;100.00;99937.09;6666309;26;34203;-89
2022/12/23 09:43:42;;;;;;;81.10;31.50;;;;;;;2.23;100.00;99935.34;6668789;26;34661;-90
2022/12/23 09:46:57;;;;;;;91.93;33.05;;;;;;;2.21;100.00;99934.53;6666048;26;34596;-89
2022/12/23 09:50:09;;;;;;;93.35;35.22;;;;;;;2.12;100.00;99919.88;6667690;26;34453;-90
2022/12/23 09:53:29;;;;;;;82.30;32.22;;;;;;;2.06;100.00;99920.03;6664304;26;33837;-89
2022/12/23 09:56:46;;;;;;;78.97;33.25;;;;;;;2.19;100.00;99924.09;6668557;26;34097;-87
2022/12/23 10:00:01;;;;;;;83.37;33.08;;;;;;;2.23;100.00;99935.34;6676281;26;33698;-87
2022/12/23 10:03:33;;;;;;;84.37;31.12;;;;;;;2.37;100.00;99928.03;6666093;26;33935;-89
2022/12/23 10:06:38;;;;;;;78.20;30.75;;;;;;;2.23;100.00;99924.87;6663968;26;33871;-89
2022/12/23 10:28:21;;;;;;;64.28;27.23;;;;;;;2.13;100.00;99883.22;6720814;26;20054;-89
2022/12/23 10:39:05;;;;;;;66.57;28.35;;;;;;;2.08;100.00;99869.38;6717569;26;20376;-89
2022/12/23 12:58:23;;;;;;;78.10;32.22;;;;;;;3.19;100.00;99858.78;6710672;26;20059;-89
2022/12/23 13:01:47;;;;;;;87.47;33.13;;;;;;;3.16;100.00;99859.72;6699758;26;33680;-89
2022/12/23 13:05:27;;;;;;;81.57;32.58;;;;;;;3.10;100.00;99854.66;6720771;26;33911;-89
2022/12/23 13:08:38;;;;;;;86.72;33.53;;;;;;;3.20;100.00;99858.75;6724398;26;35279;-89
2022/12/23 13:11:58;;;;;;;85.25;33.45;;;;;;;3.22;100.00;99859.56;6721214;26;35249;31
2022/12/23 13:15:10;;;;;;;89.97;33.78;;;;;;;3.34;100.00;99868.84;6671746;26;33724;-89
2022/12/23 13:18:28;;;;;;;77.55;31.77;;;;;;;3.39;100.00;99870.47;6692375;26;33718;-89
2022/12/23 13:21:44;;;;;;;88.30;33.65;;;;;;;3.36;100.00;99860.94;6696117;26;34467;-89
2022/12/23 13:24:54;;;;;;;77.37;32.25;;;;;;;3.42;100.00;99866.00;6721370;26;33495;-89
2022/12/23 13:28:25;;;;;;;78.62;32.90;;;;;;;3.57;100.00;99872.56;6731312;26;34415;-89
2022/12/23 13:31:58;;;;;;;94.57;34.58;;;;;;;3.54;100.00;99867.44;6737002;26;34213;-89
2022/12/23 13:39:25;;;;;;;82.70;32.42;;;;;;;3.44;100.00;99860.72;6694743;26;34004;-89
2022/12/23 13:42:37;;;;;;;88.97;33.42;;;;;;;3.39;100.00;99858.22;6671887;26;32718;-89
2022/12/23 13:45:41;;;;;;;88.65;33.08;;;;;;;3.26;100.00;99852.47;6703622;26;34135;-89
2022/12/23 13:56:26;;;;;;;94.82;33.97;;;;;;;3.44;100.00;99874.69;6719543;26;20089;-88
2022/12/23 13:59:38;;;;;;;80.72;31.45;;;;;;;3.55;100.00;99876.12;6719276;26;33767;-88
2022/12/23 14:02:49;;;;;;;76.65;31.60;;;;;;;3.58;100.00;99862.94;6719953;26;33992;-88
2022/12/23 14:05:52;;;;;;;75.50;31.05;;;;;;;3.59;100.00;99865.53;6717994;26;34040;-88
2022/12/23 14:08:55;;;;;;;86.80;33.00;;;;;;;3.70;100.00;99857.34;6718319;26;34662;-88
2022/12/23 14:12:27;;;;;;;81.20;31.37;;;;;;;3.67;100.00;99867.06;6718812;26;34227;-88
2022/12/23 14:16:13;;;;;;;81.53;32.33;;;;;;;3.62;100.00;99865.44;6720382;26;34464;-90
2022/12/23 14:19:54;;;;;;;90.65;33.60;;;;;;;3.63;100.00;99864.53;6708565;26;34199;-90
2022/12/23 14:23:18;;;;;;;85.97;32.90;;;;;;;3.45;100.00;99875.53;6700563;26;32895;-91
2022/12/23 14:26:44;;;;;;;85.82;33.00;;;;;;;3.44;100.00;99879.06;6701737;26;32719;-88
2022/12/23 14:29:50;;;;;;;75.57;31.23;;;;;;;3.44;100.00;99879.06;6660947;26;32862;-88
2022/12/23 14:32:59;;;;;;;78.25;32.03;;;;;;;3.53;100.00;99883.19;6719163;26;34577;-88
2022/12/23 14:36:23;;;;;;;81.47;33.60;;;;;;;3.52;100.00;99881.47;6725297;26;34393;-88
2022/12/23 14:39:32;;;;;;;85.00;33.53;;;;;;;3.63;100.00;99884.66;6718800;26;33703;-88
2022/12/23 14:42:39;;;;;;;79.80;29.92;;;;;;;3.62;100.00;99890.81;6699910;26;32952;-88
2022/12/23 14:45:43;;;;;;;78.40;31.12;;;;;;;3.67;100.00;99878.41;6720759;26;34077;-88
2022/12/23 14:48:49;;;;;;;80.68;31.87;;;;;;;3.68;100.00;99889.78;6706809;26;33493;-88
2022/12/23 14:52:33;;;;;;;75.78;30.62;;;;;;;3.63;100.00;99893.38;6728184;26;34446;-88
2022/12/23 14:55:45;;;;;;;75.47;31.27;;;;;;;3.68;100.00;99889.78;6704345;26;32992;-88
2022/12/23 14:59:10;;;;;;;79.70;30.98;;;;;;;3.61;100.00;99887.31;6716806;26;33544;-88
2022/12/23 15:02:19;;;;;;;75.00;30.52;;;;;;;3.62;100.00;99885.56;6720339;26;35244;-92
2022/12/23 15:05:22;;;;;;;78.12;30.40;;;;;;;3.68;100.00;99888.03;6719326;26;34709;-88
2022/12/23 15:08:38;;;;;;;86.60;32.17;;;;;;;3.71;100.00;99892.28;6699319;26;34079;-88
2022/12/23 15:11:41;;;;;;;82.05;31.58;;;;;;;3.74;100.00;99892.22;6719836;26;34480;-88
2022/12/23 15:14:50;;;;;;;76.40;31.42;;;;;;;3.74;100.00;99894.84;6719157;26;34472;-88
2022/12/23 15:18:02;;;;;;;93.60;33.78;;;;;;;3.73;100.00;99901.00;6713949;26;32844;-88
2022/12/23 15:21:11;;;;;;;89.20;32.38;;;;;;;3.66;100.00;99908.16;6730121;26;34224;-88
2022/12/23 15:24:16;;;;;;;78.05;32.10;;;;;;;3.68;100.00;99916.00;6699186;26;32761;-88
2022/12/23 15:27:19;;;;;;;84.00;32.53;;;;;;;3.75;100.00;99921.03;6700329;26;32578;-88
2022/12/23 15:30:54;;;;;;;81.12;31.20;;;;;;;3.79;100.00;99916.56;6718902;26;33667;-88
2022/12/23 15:34:03;;;;;;;79.18;30.67;;;;;;;3.84;100.00;99906.78;6719071;26;33722;-88
2022/12/23 15:37:16;;;;;;;80.78;32.67;;;;;;;3.73;100.00;99898.38;6699381;26;33688;-88
2022/12/23 15:40:30;;;;;;;84.07;33.83;;;;;;;3.63;100.00;99893.38;6718820;26;34322;-88
2022/12/23 15:43:39;;;;;;;79.18;30.80;;;;;;;3.77;100.00;99913.09;6719049;26;34457;-89
2022/12/23 15:46:43;;;;;;;76.62;31.48;;;;;;;3.73;100.00;99906.25;6699164;26;32910;-89
2022/12/23 15:49:46;;;;;;;74.20;32.13;;;;;;;3.75;100.00;99897.44;6699910;26;33647;-89
2022/12/23 15:52:52;;;;;;;73.43;30.80;;;;;;;3.70;100.00;99909.81;6721783;26;33783;-89
2022/12/23 15:55:55;;;;;;;86.50;32.33;;;;;;;3.67;100.00;99916.91;6720685;26;35320;-90
2022/12/23 15:59:01;;;;;;;83.47;32.05;;;;;;;3.65;100.00;99909.06;6719737;26;35387;-92
2022/12/23 16:02:23;;;;;;;89.80;35.08;;;;;;;3.47;100.00;99905.22;6719739;26;35360;-91
2022/12/23 16:05:47;;;;;;;81.43;32.30;;;;;;;3.57;100.00;99900.56;6719760;26;33974;-89
